Point Hope, AK

12:28 AM AKST on November 23, 2017 (GMT -0900)
Point Hope | | Change Station

Elev 13 ft 68.35 °N, 166.80 °W | Updated 32 minutes ago

Overcast
Overcast
28 °F
Feels Like 14 °F
N
24
Wind Variable Wind from WNW

Today
High -- | Low -- °F
--% Chance of Precip.
Yesterday
High -- | Low -- °F
Precip. -- in
Pressure 29.40 in
Visibility 10.0 miles
Clouds Few 2300 ft
Overcast 3900 ft
Windchill 14 °F
Dew Point 22 °F
Humidity 78%
Rainfall 0.00 in
Snow Depth Not available.
12:10 PM 3:36 PM
Waxing Crescent, 20% visible
METAR PAPO 230856Z AUTO 29021KT 10SM FEW023 OVC039 M02/M06 A2940 RMK AO2 PK WND 29030/0815 SNB14E31 SLP954 P0000 60000 T10221056 410221050 53004 FZRANO
Pressure 29.40 in
Visibility 10.0 miles
Clouds Few 2300 ft
Overcast 3900 ft
Windchill 14 °F
Dew Point 22 °F
Humidity 78%
Rainfall 0.00 in
Snow Depth Not available.
12:10 PM 3:36 PM
Waxing Crescent, 20% visible
METAR PAPO 230856Z AUTO 29021KT 10SM FEW023 OVC039 M02/M06 A2940 RMK AO2 PK WND 29030/0815 SNB14E31 SLP954 P0000 60000 T10221056 410221050 53004 FZRANO

Get Severe Weather Alerts

Thanks for signing up!

Be on the lookout for a verification email in your inbox.

You'll start receiving the daily forecast at 6 AM.

×

10-Day Weather Forecast

Almanac

Astronomy

Nov. 23, 2017 Rise Set
Actual Time
Civil Twilight
Nautical Twilight
Astronomical Twilight
Moon
Length of Visible Light
Length of Day
Tomorrow will be .
, % of the Moon is Illuminated

Today's Extremes

State Highs State Lows

Community

WunderPhotos

Category 6

Welcome to Category 6. This is the collective home for Weather Underground's featured writeups by Dr. Jeff Masters (right), Bob Henson (left), Chris Burt, and other regular contributors.

Nearby

Air Quality

  Air Quality AQ Index Pollutant
Not available.

Snow Depth

Station Depth Elevation

Earthquake Activity

City Distance Mag. Time & Date
Minimum magnitude displayed is 2.5.

Coastal Water Temperatures

Place Temperature

Stations

Nearby Weather Stations

Station Location Temp. Windchill Dew Point Humidity Wind Precip. Elev Updated Type
                   

Watches & Warnings

There are currently no watches in effect.